createdAt,value
2022-09-03T00:00:27.435Z,82.05
2022-09-03T00:01:27.808Z,81.85
2022-09-03T00:02:28.125Z,81.75
2022-09-03T00:03:28.331Z,81.65
2022-09-03T00:04:28.659Z,81.75
2022-09-03T00:05:28.973Z,81.75
2022-09-03T00:06:29.302Z,81.99
2022-09-03T00:07:29.631Z,81.89
2022-09-03T00:08:29.975Z,82.09
2022-09-03T00:09:30.167Z,82.29
2022-09-03T00:10:30.511Z,83.00
2022-09-03T00:11:30.699Z,82.90
2022-09-03T00:12:31.027Z,83.44
2022-09-03T00:13:31.341Z,83.44
2022-09-03T00:14:31.630Z,83.54
2022-09-03T00:15:31.979Z,83.24
2022-09-03T00:16:32.208Z,83.44
2022-09-03T00:17:32.400Z,83.00
2022-09-03T00:18:32.730Z,82.79
2022-09-03T00:19:33.078Z,82.70
2022-09-03T00:20:33.386Z,83.00
2022-09-03T00:21:33.689Z,83.74
2022-09-03T00:22:33.975Z,83.64
2022-09-03T00:23:34.262Z,83.64
2022-09-03T00:24:34.570Z,84.15
2022-09-03T00:25:34.884Z,84.19
2022-09-03T00:26:35.203Z,84.29
2022-09-03T00:27:35.521Z,84.05
2022-09-03T00:28:35.850Z,83.64
2022-09-03T00:29:36.168Z,83.44
2022-09-03T00:30:36.472Z,83.24
2022-09-03T00:31:36.824Z,83.34
2022-09-03T00:32:37.059Z,82.90
2022-09-03T00:33:37.378Z,83.00
2022-09-03T00:34:37.698Z,83.00
2022-09-03T00:35:38.020Z,83.54
2022-09-03T00:36:38.328Z,83.64
2022-09-03T00:37:42.347Z,83.44
2022-09-03T00:38:38.941Z,83.44
2022-09-03T00:39:39.176Z,83.54
2022-09-03T00:40:39.422Z,83.34
2022-09-03T00:41:39.741Z,83.34
2022-09-03T00:42:40.058Z,83.64
2022-09-03T00:43:40.378Z,83.95
2022-09-03T00:44:40.718Z,84.35
2022-09-03T00:45:41.021Z,84.29
2022-09-03T00:46:41.391Z,84.25
2022-09-03T00:47:41.618Z,83.74
2022-09-03T00:48:41.830Z,83.54
2022-09-03T00:49:42.139Z,83.34
2022-09-03T00:50:42.453Z,83.64
2022-09-03T00:51:42.751Z,83.54
2022-09-03T00:52:43.071Z,83.04
2022-09-03T02:56:15.997Z,89.86
2022-09-03T02:57:16.240Z,89.65
2022-09-03T02:58:16.587Z,90.06
2022-09-03T02:59:16.848Z,89.75
2022-09-03T03:00:17.071Z,90.77
2022-09-03T03:01:19.695Z,91.37
2022-09-03T03:02:18.683Z,91.67
2022-09-03T03:03:17.900Z,91.97
2022-09-03T03:04:18.241Z,92.18
2022-09-03T03:05:18.473Z,92.42
2022-09-03T03:06:18.711Z,92.42
2022-09-03T03:07:18.954Z,92.32
2022-09-03T03:08:19.193Z,91.91
2022-09-03T03:09:19.419Z,91.71
2022-09-03T03:10:19.744Z,91.82
2022-09-03T03:11:20.102Z,91.82
2022-09-03T03:12:20.315Z,91.91
2022-09-03T03:13:20.629Z,91.91
2022-09-03T03:14:20.958Z,91.82
2022-09-03T03:15:21.277Z,92.52
2022-09-03T03:16:21.708Z,92.32
2022-09-03T03:17:21.813Z,92.82
2022-09-03T03:18:22.213Z,91.71
2022-09-03T03:19:22.440Z,91.57
2022-09-03T03:20:22.765Z,91.57
2022-09-03T03:21:23.083Z,91.57
2022-09-03T03:22:23.427Z,92.38
2022-09-03T03:23:23.629Z,93.57
2022-09-03T03:24:23.958Z,93.68
2022-09-03T03:25:24.288Z,93.98
2022-09-03T03:26:24.571Z,94.08
2022-09-03T03:27:24.914Z,94.08
2022-09-03T03:28:25.235Z,93.88
2022-09-03T03:29:25.401Z,94.28
2022-09-03T03:30:25.749Z,94.18
2022-09-03T03:31:25.998Z,94.18
2022-09-03T03:32:26.317Z,95.09
2022-09-03T03:33:26.661Z,94.89
2022-09-03T03:34:26.869Z,95.79
2022-09-03T03:35:27.182Z,95.59
2022-09-03T03:36:27.480Z,95.90
2022-09-03T03:37:27.797Z,96.60
2022-09-03T03:38:28.133Z,96.45
2022-09-03T03:39:28.379Z,96.75
2022-09-03T03:40:28.650Z,96.89
2022-09-03T03:41:28.832Z,97.71
2022-09-03T03:42:29.116Z,97.50
2022-09-03T03:43:29.424Z,97.40
2022-09-03T03:44:29.759Z,97.50
2022-09-03T03:45:30.112Z,97.10
2022-09-03T03:46:30.304Z,96.75
2022-09-03T03:47:30.633Z,96.85
2022-09-03T03:48:30.958Z,96.29
2022-09-03T03:49:31.302Z,96.29
2022-09-03T03:50:31.661Z,97.00
2022-09-03T03:51:31.863Z,97.00
2022-09-03T03:52:32.187Z,96.80
2022-09-03T03:53:32.501Z,96.49
2022-09-03T03:54:32.806Z,96.34
2022-09-03T03:55:35.208Z,96.69
2022-09-03T03:56:33.427Z,97.00
2022-09-03T03:57:33.741Z,96.95
2022-09-03T03:58:34.028Z,96.25
2022-09-03T03:59:34.330Z,96.65
2022-09-03T04:00:34.681Z,96.45
2022-09-03T04:01:35.053Z,96.65
2022-09-03T04:02:39.031Z,96.04
2022-09-03T04:03:35.450Z,96.14
2022-09-03T04:04:35.784Z,95.94
2022-09-03T04:05:37.263Z,96.14
2022-09-03T04:06:36.290Z,95.79
2022-09-03T04:07:36.648Z,94.89
2022-09-03T04:08:36.853Z,95.39
2022-09-03T04:09:37.178Z,94.68
2022-09-03T04:10:37.485Z,94.99
2022-09-03T04:11:37.803Z,94.68
2022-09-03T04:12:38.137Z,96.30
2022-09-03T04:13:38.330Z,96.60
2022-09-03T04:14:38.645Z,96.00
2022-09-03T04:15:38.963Z,96.40
2022-09-03T04:16:39.340Z,97.11
2022-09-03T04:17:39.555Z,97.21
2022-09-03T04:18:39.875Z,96.40
2022-09-03T04:19:40.217Z,95.19
2022-09-03T04:20:40.536Z,96.00
2022-09-03T04:21:40.895Z,95.59
2022-09-03T04:22:41.107Z,96.20
2022-09-03T04:23:41.412Z,96.91
2022-09-03T04:24:41.720Z,95.79
2022-09-03T04:25:42.029Z,95.70
2022-09-03T04:26:42.342Z,95.39
2022-09-03T04:27:42.651Z,95.79
2022-09-03T04:28:42.967Z,94.99
2022-09-03T04:29:43.293Z,95.70
2022-09-03T04:30:43.593Z,96.30
2022-09-03T04:31:43.805Z,95.79
2022-09-03T04:32:44.055Z,95.79
2022-09-03T04:33:44.358Z,95.04
2022-09-03T04:34:44.680Z,95.04
2022-09-03T04:35:45.006Z,94.84
2022-09-03T04:36:47.180Z,95.25
2022-09-03T04:37:45.656Z,95.25
2022-09-03T04:38:45.991Z,94.64
2022-09-03T04:39:46.223Z,93.93
2022-09-03T04:40:46.502Z,93.84
2022-09-03T04:41:46.846Z,93.84
2022-09-03T04:42:47.165Z,94.44
2022-09-03T04:43:48.635Z,94.74
2022-09-03T04:44:47.726Z,94.34
2022-09-03T04:45:48.127Z,93.73
2022-09-03T04:46:48.338Z,93.63
2022-09-03T04:47:48.662Z,94.19
2022-09-03T04:48:48.972Z,95.45
2022-09-03T04:49:49.291Z,94.84
2022-09-03T04:50:49.614Z,94.94
2022-09-03T04:51:49.807Z,94.94
2022-09-03T04:52:50.095Z,95.65
2022-09-03T04:53:50.394Z,95.25
2022-09-03T04:54:50.716Z,96.25
2022-09-03T04:55:51.070Z,95.45
2022-09-03T04:56:51.263Z,94.94
2022-09-03T04:57:51.598Z,95.04
2022-09-03T04:58:51.902Z,94.64
2022-09-03T04:59:52.235Z,95.45
2022-09-03T05:00:52.599Z,95.14
2022-09-03T05:01:53.021Z,95.25
2022-09-03T05:02:53.161Z,95.45
2022-09-03T05:03:53.394Z,95.75
2022-09-03T05:04:53.597Z,95.85
2022-09-03T05:05:53.875Z,95.65
2022-09-03T05:06:54.178Z,95.04
2022-09-03T05:07:54.497Z,95.55
2022-09-03T05:08:54.846Z,94.84
2022-09-03T05:09:55.064Z,95.14
2022-09-03T05:10:55.398Z,95.45
2022-09-03T05:11:55.723Z,94.24
2022-09-03T05:12:56.051Z,94.74
2022-09-03T05:13:56.354Z,95.55
2022-09-03T05:14:56.673Z,94.44
2022-09-03T05:15:57.091Z,95.75
2022-09-03T05:16:57.380Z,95.04
2022-09-03T05:17:57.576Z,94.84
2022-09-03T05:18:57.898Z,95.25
2022-09-03T05:19:58.208Z,95.55
2022-09-03T05:20:58.507Z,94.44
2022-09-03T05:21:58.824Z,94.34
2022-09-03T05:22:59.127Z,94.70
2022-09-03T05:23:59.425Z,95.61
2022-09-03T05:24:59.724Z,95.20
2022-09-03T05:26:00.039Z,95.20
2022-09-03T05:27:00.395Z,95.10
2022-09-03T05:28:00.594Z,96.21
2022-09-03T05:29:00.938Z,95.81
2022-09-03T05:30:01.141Z,95.61
2022-09-03T05:31:01.444Z,96.51
2022-09-03T05:32:01.804Z,96.31
2022-09-03T05:33:02.048Z,96.36
2022-09-03T05:34:02.366Z,96.15
2022-09-03T05:35:02.684Z,96.56
2022-09-03T05:36:02.998Z,96.01
2022-09-03T05:37:03.317Z,96.66
2022-09-03T05:38:03.615Z,96.25
2022-09-03T05:39:03.964Z,96.61
2022-09-03T05:40:04.243Z,95.81
2022-09-03T05:41:04.456Z,95.61
2022-09-03T05:42:04.744Z,96.71
2022-09-03T05:43:08.416Z,96.41
2022-09-03T05:44:05.401Z,96.51
2022-09-03T05:45:05.713Z,96.11
2022-09-03T05:46:06.074Z,95.20
2022-09-03T05:47:06.373Z,94.49
2022-09-03T05:48:06.582Z,94.39
2022-09-03T05:49:06.935Z,94.49
2022-09-03T05:50:07.168Z,94.49
2022-09-03T05:51:07.366Z,94.29
2022-09-03T05:52:07.684Z,94.39
2022-09-03T05:53:07.988Z,95.70
2022-09-03T05:54:08.350Z,96.01
2022-09-03T05:55:11.692Z,96.01
2022-09-03T05:56:08.871Z,95.30
2022-09-03T05:57:09.187Z,95.00
2022-09-03T05:58:09.507Z,94.39
2022-09-03T05:59:09.814Z,94.65
2022-09-03T06:00:10.158Z,94.15
2022-09-03T06:01:10.361Z,94.25
2022-09-03T06:02:10.775Z,94.45
2022-09-03T06:03:11.040Z,94.25
2022-09-03T06:04:11.197Z,93.74
2022-09-03T06:05:11.545Z,94.75
2022-09-03T06:06:11.750Z,94.05
2022-09-03T06:07:12.067Z,93.85
2022-09-03T06:08:12.396Z,95.15
2022-09-03T06:09:12.725Z,95.72
2022-09-03T06:10:13.044Z,95.86
2022-09-03T06:11:13.328Z,96.16
2022-09-03T06:12:13.646Z,96.36
2022-09-03T06:13:13.971Z,97.07
2022-09-03T06:14:14.325Z,96.97
2022-09-03T06:15:14.527Z,97.27
2022-09-03T06:16:14.871Z,97.27
2022-09-03T06:17:15.069Z,96.87
2022-09-03T06:18:15.351Z,95.76
2022-09-03T06:19:15.675Z,95.26
2022-09-03T06:20:15.979Z,95.96
2022-09-03T06:21:16.297Z,96.47
2022-09-03T06:22:16.641Z,95.46
2022-09-03T06:23:16.854Z,94.91
2022-09-03T06:24:17.185Z,96.52
2022-09-03T06:25:17.487Z,95.31
2022-09-03T06:26:17.815Z,94.31
2022-09-03T06:27:18.155Z,96.32
2022-09-03T06:28:18.352Z,96.83
2022-09-03T06:29:19.659Z,95.01
2022-09-03T06:30:18.914Z,94.40
2022-09-03T06:31:19.269Z,95.17
2022-09-03T06:32:19.520Z,95.57
2022-09-03T06:33:19.764Z,95.17
2022-09-03T06:34:19.997Z,95.02
2022-09-03T06:35:20.316Z,94.21
2022-09-03T06:36:20.624Z,94.01
2022-09-03T06:37:20.960Z,93.71
2022-09-03T06:38:21.163Z,94.27
2022-09-03T06:39:21.534Z,92.86
2022-09-03T06:40:21.773Z,92.76
2022-09-03T06:41:22.092Z,92.76
2022-09-03T06:42:22.443Z,94.87
2022-09-03T06:43:22.649Z,93.07
2022-09-03T06:44:22.967Z,93.46
2022-09-03T06:45:23.287Z,92.16
2022-09-03T06:46:23.939Z,91.96
2022-09-03T06:47:23.959Z,93.27
2022-09-03T06:48:24.376Z,92.06
2022-09-03T06:49:24.545Z,91.86
2022-09-03T06:50:24.794Z,92.26
2022-09-03T06:51:24.992Z,91.46
2022-09-03T06:52:25.311Z,91.75
2022-09-03T06:53:25.614Z,92.26
2022-09-03T06:54:26.956Z,91.86
2022-09-03T06:55:26.211Z,91.75
2022-09-03T06:56:26.534Z,92.26
2022-09-03T06:57:26.865Z,93.77
2022-09-03T06:58:27.179Z,92.56
2022-09-03T06:59:27.456Z,92.76
2022-09-03T07:00:27.659Z,92.96
2022-09-03T07:01:27.961Z,92.96
2022-09-03T07:02:28.313Z,93.87
2022-09-03T07:03:28.545Z,93.27
2022-09-03T07:04:29.098Z,93.77
2022-09-03T07:05:29.118Z,92.46
2022-09-03T07:06:29.410Z,93.16
2022-09-03T07:07:29.734Z,92.66
2022-09-03T07:08:30.068Z,92.76
2022-09-03T07:09:30.406Z,93.57
2022-09-03T07:10:30.611Z,92.76
2022-09-03T07:11:30.941Z,92.76
2022-09-03T07:12:31.241Z,92.76
2022-09-03T07:13:31.542Z,93.46
2022-09-03T07:14:31.885Z,92.46
2022-09-03T07:15:32.203Z,93.46
2022-09-03T07:16:32.525Z,93.66
2022-09-03T07:17:32.800Z,93.46
2022-09-03T07:18:32.992Z,93.46
2022-09-03T07:19:33.310Z,93.16
2022-09-03T07:20:33.621Z,93.87
2022-09-03T07:21:33.962Z,92.96
2022-09-03T07:22:34.284Z,93.16
2022-09-03T07:23:34.607Z,92.56
2022-09-03T07:24:34.950Z,92.76
2022-09-03T07:25:35.137Z,92.96
2022-09-03T07:26:35.458Z,92.86
2022-09-03T07:27:35.770Z,93.46
2022-09-03T07:28:36.084Z,93.16
2022-09-03T07:29:36.433Z,92.76
2022-09-03T07:30:36.742Z,92.86
2022-09-03T07:31:37.006Z,92.96
2022-09-03T07:32:37.203Z,92.96
2022-09-03T07:33:37.491Z,93.16
2022-09-03T07:34:37.824Z,93.07
2022-09-03T07:35:38.037Z,93.77
2022-09-03T07:36:38.391Z,93.57
2022-09-03T07:37:38.665Z,93.07
2022-09-03T07:38:38.986Z,93.07
2022-09-03T07:39:39.312Z,93.16
2022-09-03T07:40:39.536Z,92.72
2022-09-03T07:41:39.875Z,92.82
2022-09-03T07:42:40.083Z,93.12
2022-09-03T07:43:40.397Z,93.32
2022-09-03T07:44:40.734Z,93.22
2022-09-03T07:45:41.048Z,92.82
2022-09-03T07:46:41.375Z,92.32
2022-09-03T07:47:41.601Z,92.52
2022-09-03T07:48:41.949Z,92.41
2022-09-03T07:49:42.126Z,92.61
2022-09-03T07:50:42.415Z,91.71
2022-09-03T07:51:42.723Z,91.82
2022-09-03T07:52:43.007Z,91.71
2022-09-03T07:53:43.331Z,92.11
2022-09-03T07:54:43.635Z,92.02
2022-09-03T07:55:43.960Z,92.02
2022-09-03T07:56:44.273Z,92.22
2022-09-03T07:57:44.596Z,91.97
2022-09-03T07:58:44.937Z,91.87
2022-09-03T07:59:45.259Z,91.87
2022-09-03T08:00:45.599Z,91.47
2022-09-03T08:01:45.817Z,91.72
2022-09-03T08:02:46.612Z,91.93
2022-09-03T08:03:46.448Z,91.63
2022-09-03T08:04:46.665Z,90.92
2022-09-03T08:05:47.011Z,90.82
2022-09-03T08:06:47.229Z,90.42
2022-09-03T08:07:47.556Z,90.62
2022-09-03T08:08:47.916Z,91.22
2022-09-03T08:09:48.158Z,90.62
2022-09-03T08:10:48.347Z,91.58
2022-09-03T08:11:48.670Z,89.17
2022-09-03T08:12:48.988Z,89.98
2022-09-03T08:13:49.308Z,89.78
2022-09-03T08:14:49.656Z,89.58
2022-09-03T08:15:49.875Z,89.27
2022-09-03T08:16:50.114Z,89.43
2022-09-03T08:17:50.436Z,89.33
2022-09-03T08:18:50.754Z,88.32
2022-09-03T08:19:51.106Z,87.42
2022-09-03T08:20:51.428Z,85.82
2022-09-03T08:21:51.748Z,87.22
2022-09-03T08:22:52.055Z,88.73
2022-09-03T08:23:52.359Z,87.93
2022-09-03T08:24:52.698Z,86.32
2022-09-03T08:25:53.021Z,86.62
2022-09-03T08:26:53.339Z,86.88
2022-09-03T08:27:53.664Z,86.78
2022-09-03T08:28:53.978Z,86.98
2022-09-03T08:29:54.349Z,86.38
2022-09-03T08:30:54.584Z,85.08
2022-09-03T08:31:54.965Z,84.07
2022-09-03T08:32:55.187Z,83.77
2022-09-03T08:33:55.511Z,83.17
2022-09-03T08:34:55.849Z,83.57
2022-09-03T08:35:56.043Z,84.47
2022-09-03T08:36:56.360Z,84.67
2022-09-03T08:37:57.057Z,84.47
2022-09-03T08:38:56.993Z,84.27
2022-09-03T08:39:57.377Z,82.97
2022-09-03T08:40:57.591Z,84.37
2022-09-03T08:41:57.888Z,83.97
2022-09-03T08:42:58.183Z,83.13
2022-09-03T08:43:58.482Z,83.33
2022-09-03T08:44:58.779Z,84.74
2022-09-03T08:45:59.013Z,84.43
2022-09-03T08:46:59.352Z,85.44
2022-09-03T08:47:59.649Z,85.94
2022-09-03T08:48:59.940Z,84.74
2022-09-03T08:50:00.255Z,83.63
2022-09-03T08:51:00.551Z,83.59
2022-09-03T08:52:00.904Z,83.19
2022-09-03T08:53:01.091Z,82.89
2022-09-03T08:54:01.410Z,83.05
2022-09-03T08:55:01.721Z,82.24
2022-09-03T08:56:02.044Z,81.95
2022-09-03T08:57:02.393Z,82.61
2022-09-03T08:58:02.589Z,82.81
2022-09-03T08:59:02.898Z,80.91
2022-09-03T09:00:03.221Z,80.77
2022-09-03T09:01:03.547Z,79.97
2022-09-03T09:02:03.873Z,80.27
2022-09-03T09:03:04.093Z,80.67
2022-09-03T09:04:04.362Z,82.47
2022-09-03T09:05:06.266Z,81.43
2022-09-03T09:06:04.974Z,81.23
2022-09-03T09:07:05.281Z,81.73
2022-09-03T09:08:05.590Z,80.23
2022-09-03T09:09:05.905Z,80.83
2022-09-03T09:10:06.233Z,79.33
2022-09-03T09:11:06.557Z,80.29
2022-09-03T09:12:06.903Z,79.19
2022-09-03T09:13:07.103Z,77.15
2022-09-03T09:14:07.433Z,77.36
2022-09-03T09:15:07.772Z,77.06
2022-09-03T09:16:08.119Z,76.65
2022-09-03T09:17:08.302Z,76.26
2022-09-03T09:18:08.621Z,76.15
2022-09-03T09:19:08.910Z,76.26
2022-09-03T09:20:09.234Z,76.92
2022-09-03T09:21:09.431Z,76.42
2022-09-03T09:22:09.747Z,76.42
2022-09-03T09:23:10.189Z,75.12
2022-09-03T09:24:10.293Z,75.42
2022-09-03T09:25:10.643Z,76.42
2022-09-03T09:26:10.848Z,75.82
2022-09-03T09:27:15.899Z,75.72
2022-09-03T09:28:11.431Z,76.92
2022-09-03T09:29:11.749Z,75.62
2022-09-03T09:30:12.095Z,74.79
2022-09-03T09:31:12.513Z,75.59
2022-09-03T09:32:12.640Z,75.85
2022-09-03T09:33:12.954Z,74.55
2022-09-03T09:34:13.268Z,75.65
2022-09-03T09:35:13.591Z,73.61
2022-09-03T09:36:13.911Z,73.85
2022-09-03T09:37:14.264Z,73.95
2022-09-03T09:38:16.436Z,72.25
2022-09-03T09:39:14.745Z,72.02
2022-09-03T09:40:15.074Z,68.83
2022-09-03T09:41:15.373Z,71.69
2022-09-03T09:42:15.726Z,71.89
2022-09-03T09:43:15.945Z,72.25
2022-09-03T09:44:16.167Z,71.15
2022-09-03T09:45:16.479Z,71.15
2022-09-03T09:46:16.870Z,71.05
2022-09-03T09:47:17.129Z,72.25
2022-09-03T09:48:17.321Z,68.96
2022-09-03T09:49:17.626Z,68.86
2022-09-03T09:50:24.985Z,69.02
2022-09-03T09:51:19.270Z,67.73
2022-09-03T09:52:18.525Z,68.43
2022-09-03T09:53:18.872Z,70.03
2022-09-03T09:54:19.059Z,68.90
2022-09-03T09:55:19.375Z,66.91
2022-09-03T09:56:19.687Z,68.56
2022-09-03T09:57:19.938Z,69.66
2022-09-03T09:58:20.278Z,68.86
2022-09-03T09:59:20.464Z,69.23
2022-09-03T10:00:20.763Z,68.46
2022-09-03T10:01:21.118Z,72.11
2022-09-03T10:02:22.157Z,69.46
2022-09-03T10:03:21.678Z,67.07
2022-09-03T10:04:21.987Z,69.46
2022-09-03T10:05:22.301Z,68.16
2022-09-03T10:06:22.605Z,68.53
2022-09-03T10:07:22.921Z,66.87
2022-09-03T10:08:23.265Z,65.45
2022-09-03T10:09:30.811Z,66.84
2022-09-03T10:10:24.881Z,68.13
2022-09-03T10:11:24.177Z,67.70
2022-09-03T10:12:24.370Z,66.74
2022-09-03T10:13:24.684Z,65.52
2022-09-03T10:14:24.988Z,66.61
2022-09-03T10:15:25.271Z,65.09
2022-09-03T10:16:25.674Z,65.02
2022-09-03T10:17:33.483Z,62.56
2022-09-03T10:18:27.446Z,62.86
2022-09-03T10:19:26.417Z,62.16
2022-09-03T10:20:26.698Z,61.77
2022-09-03T10:21:27.047Z,61.96
2022-09-03T10:22:27.352Z,62.16
2022-09-03T10:23:28.652Z,61.47
2022-09-03T10:24:27.899Z,64.18
2022-09-03T10:25:28.188Z,64.51
2022-09-03T10:26:28.540Z,64.61
2022-09-03T10:27:28.768Z,67.20
2022-09-03T10:28:29.036Z,68.13
2022-09-03T10:29:29.335Z,68.13
2022-09-03T10:30:29.613Z,67.24
2022-09-03T10:31:29.970Z,64.58
2022-09-03T10:32:38.861Z,62.51
2022-09-03T10:33:31.534Z,63.14
2022-09-03T10:34:30.767Z,62.74
2022-09-03T10:35:31.047Z,63.67
2022-09-03T10:36:31.356Z,65.56
2022-09-03T10:37:31.703Z,63.77
2022-09-03T10:38:31.882Z,64.10
2022-09-03T10:39:32.193Z,66.13
2022-09-03T10:40:33.471Z,67.63
2022-09-03T10:41:32.711Z,67.53
2022-09-03T10:42:33.040Z,67.26
2022-09-03T10:43:33.339Z,70.26
2022-09-03T10:44:33.652Z,71.66
2022-09-03T10:45:37.787Z,71.06
2022-09-03T10:46:34.338Z,71.39
2022-09-03T10:47:34.583Z,72.69
2022-09-03T10:48:34.877Z,73.43
2022-09-03T10:49:35.190Z,75.02
2022-09-03T10:50:35.495Z,75.76
2022-09-03T10:51:35.789Z,77.17
2022-09-03T10:52:36.141Z,77.47
2022-09-03T10:53:36.429Z,79.41
2022-09-03T10:54:36.735Z,81.11
2022-09-03T10:55:37.052Z,82.31
2022-09-03T10:56:37.351Z,82.65
2022-09-03T10:57:37.690Z,84.55
2022-09-03T10:58:37.883Z,85.69
2022-09-03T10:59:38.210Z,86.69
2022-09-03T11:00:38.500Z,87.74
2022-09-03T11:01:38.851Z,88.64
2022-09-03T11:02:39.167Z,89.79
2022-09-03T11:03:39.441Z,89.79
2022-09-03T11:04:39.624Z,89.69
2022-09-03T11:05:39.969Z,90.59
2022-09-03T11:06:40.190Z,88.83
2022-09-03T11:07:40.488Z,89.63
2022-09-03T11:08:40.834Z,90.84
2022-09-03T11:09:41.136Z,88.63
2022-09-03T11:10:41.449Z,90.13
2022-09-03T11:11:42.582Z,88.12
2022-09-03T11:12:42.078Z,87.32
2022-09-03T11:13:42.419Z,86.98
2022-09-03T11:14:42.755Z,87.48
2022-09-03T11:15:43.120Z,89.59
2022-09-03T11:16:43.296Z,90.55
2022-09-03T11:17:43.540Z,88.44
2022-09-03T11:18:43.834Z,87.44
2022-09-03T11:19:44.172Z,87.34
2022-09-03T11:20:44.491Z,86.19
2022-09-03T11:21:44.795Z,86.30
2022-09-03T11:22:45.124Z,86.76
2022-09-03T11:23:45.426Z,87.26
2022-09-03T11:24:45.762Z,84.95
2022-09-03T11:25:46.075Z,85.66
2022-09-03T11:26:46.384Z,90.72
2022-09-03T11:27:46.681Z,80.74
2022-09-03T11:28:46.964Z,84.75
2022-09-03T11:29:47.303Z,85.85
2022-09-03T11:30:47.656Z,81.59
2022-09-03T11:31:47.898Z,81.38
2022-09-03T11:32:48.195Z,85.19
2022-09-03T11:33:48.473Z,90.11
2022-09-03T11:34:48.736Z,88.70
2022-09-03T11:35:49.026Z,91.27
2022-09-03T11:36:49.346Z,90.86
2022-09-03T11:37:49.683Z,87.26
2022-09-03T11:38:49.991Z,86.66
2022-09-03T11:39:50.443Z,86.66
2022-09-03T11:40:50.537Z,86.76
2022-09-03T11:41:50.846Z,86.35
2022-09-03T11:42:51.174Z,86.80
2022-09-03T11:43:51.485Z,85.80
2022-09-03T11:44:52.142Z,86.04
2022-09-03T11:45:52.061Z,86.04
2022-09-03T11:46:52.259Z,86.44
2022-09-03T11:47:52.571Z,87.28
2022-09-03T11:48:52.845Z,87.78
2022-09-03T11:49:53.176Z,88.68
2022-09-03T11:50:53.495Z,89.39
2022-09-03T11:51:53.834Z,89.39
2022-09-03T11:52:54.150Z,88.29
2022-09-03T11:53:54.479Z,87.84
2022-09-03T11:54:54.808Z,89.09
2022-09-03T11:55:55.306Z,88.39
2022-09-03T11:56:55.289Z,89.14
2022-09-03T11:57:55.596Z,85.44
2022-09-03T11:58:55.906Z,86.28
2022-09-03T11:59:56.235Z,88.44
2022-09-03T12:00:56.471Z,88.04
2022-09-03T12:01:56.768Z,86.94
2022-09-03T12:02:59.187Z,83.89
2022-09-03T12:03:57.326Z,85.10
2022-09-03T12:04:57.729Z,85.99
2022-09-03T12:05:57.918Z,85.39
2022-09-03T12:06:58.215Z,85.83
2022-09-03T12:07:58.530Z,86.04
2022-09-03T12:08:58.836Z,86.64
2022-09-03T12:09:59.175Z,85.27
2022-09-03T12:10:59.493Z,85.58
2022-09-03T12:11:59.812Z,86.08
2022-09-03T12:13:00.116Z,86.18
2022-09-03T12:14:00.419Z,86.48
2022-09-03T12:15:00.745Z,85.97
2022-09-03T12:16:01.012Z,85.38
2022-09-03T12:17:01.225Z,85.68
2022-09-03T12:18:01.540Z,86.32
2022-09-03T12:19:01.853Z,87.02
2022-09-03T12:20:02.197Z,86.22
2022-09-03T12:21:02.500Z,86.92
2022-09-03T12:22:02.798Z,87.62
2022-09-03T12:23:03.114Z,86.98
2022-09-03T12:24:03.407Z,87.78
2022-09-03T12:25:03.745Z,86.33
2022-09-03T12:26:04.050Z,84.83
2022-09-03T12:27:04.352Z,85.74
2022-09-03T12:28:04.654Z,85.58
2022-09-03T12:29:04.928Z,84.51
2022-09-03T12:30:05.298Z,85.97
2022-09-03T12:31:05.688Z,84.31
2022-09-03T12:32:05.850Z,84.81
2022-09-03T12:33:06.215Z,84.21
2022-09-03T12:34:06.451Z,85.27
2022-09-03T12:35:06.750Z,84.77
2022-09-03T12:36:07.065Z,84.27
2022-09-03T12:37:07.372Z,85.17
2022-09-03T12:38:09.959Z,84.17
2022-09-03T12:39:11.958Z,84.77
2022-09-03T12:40:09.041Z,84.67
2022-09-03T12:41:26.966Z,82.57
2022-09-03T12:42:09.824Z,81.10
2022-09-03T12:44:10.380Z,82.51
2022-09-03T12:45:09.629Z,82.54
2022-09-03T12:46:10.700Z,84.61
2022-09-03T12:48:11.605Z,83.11
2022-09-03T12:50:12.221Z,78.79
2022-09-03T12:52:12.754Z,78.45
2022-09-03T12:53:12.004Z,79.32
2022-09-03T12:54:12.312Z,79.54
2022-09-03T12:55:12.881Z,75.90
2022-09-03T12:56:12.873Z,75.33
2022-09-03T12:57:13.202Z,75.79
2022-09-03T12:58:14.164Z,75.46
2022-09-03T12:59:13.750Z,74.02
2022-09-03T13:00:14.109Z,71.33
2022-09-03T13:01:14.400Z,73.16
2022-09-03T13:02:14.619Z,74.73
2022-09-03T13:03:14.808Z,75.16
2022-09-03T13:04:15.118Z,76.00
2022-09-03T13:05:15.453Z,74.73
2022-09-03T13:06:15.774Z,79.74
2022-09-03T13:07:16.091Z,75.23
2022-09-03T13:08:16.411Z,75.84
2022-09-03T13:09:16.760Z,76.90
2022-09-03T13:10:16.987Z,75.06
2022-09-03T13:11:17.201Z,77.22
2022-09-03T13:12:17.514Z,77.18
2022-09-03T13:13:17.834Z,69.89
2022-09-03T13:14:18.133Z,72.42
2022-09-03T13:15:18.425Z,72.32
2022-09-03T13:16:18.825Z,69.26
2022-09-03T13:17:19.068Z,69.53
2022-09-03T13:18:19.377Z,69.06
2022-09-03T13:19:19.701Z,68.79
2022-09-03T13:20:20.014Z,66.31
2022-09-03T13:21:20.332Z,68.60
2022-09-03T13:22:20.688Z,70.39
2022-09-03T13:23:20.879Z,66.87
2022-09-03T13:24:21.194Z,71.09
2022-09-03T13:25:21.512Z,70.56
2022-09-03T13:26:21.816Z,71.72
2022-09-03T13:27:22.134Z,72.16
2022-09-03T13:28:22.436Z,71.92
2022-09-03T13:29:22.745Z,74.00
2022-09-03T13:30:23.095Z,74.40
2022-09-03T13:31:23.395Z,74.03
2022-09-03T13:32:23.698Z,74.10
2022-09-03T13:33:24.074Z,73.46
2022-09-03T13:34:25.283Z,73.93
2022-09-03T13:35:24.527Z,72.83
2022-09-03T13:36:24.831Z,73.66
2022-09-03T13:37:25.146Z,70.49
2022-09-03T13:38:25.440Z,67.69
2022-09-03T13:39:25.822Z,68.46
2022-09-03T13:40:26.056Z,69.89
2022-09-03T13:41:26.259Z,65.80
2022-09-03T13:42:27.554Z,68.16
2022-09-03T13:43:26.805Z,68.13
2022-09-03T13:44:27.134Z,67.00
2022-09-03T13:45:27.483Z,64.75
2022-09-03T13:46:27.752Z,66.47
2022-09-03T13:47:28.004Z,69.09
2022-09-03T13:48:28.207Z,69.16
2022-09-03T13:49:28.502Z,68.86
2022-09-03T13:50:28.804Z,70.06
2022-09-03T13:51:29.128Z,67.13
2022-09-03T13:52:29.316Z,66.80
2022-09-03T13:53:29.640Z,67.10
2022-09-03T13:54:48.153Z,69.56
2022-09-03T13:55:31.244Z,70.29
2022-09-03T13:56:30.535Z,70.39
2022-09-03T13:57:30.727Z,70.83
2022-09-03T13:58:31.032Z,70.89
2022-09-03T13:59:31.254Z,71.19
2022-09-03T14:00:31.477Z,69.62
2022-09-03T14:01:31.867Z,68.53
2022-09-03T14:02:32.124Z,66.94
2022-09-03T14:03:32.257Z,68.43
2022-09-03T14:04:32.576Z,68.07
2022-09-03T14:05:32.874Z,65.88
2022-09-03T14:06:33.230Z,66.97
2022-09-03T14:07:33.411Z,64.85
2022-09-03T14:08:33.740Z,65.42
2022-09-03T14:09:34.096Z,64.03
2022-09-03T14:10:34.319Z,64.49
2022-09-03T14:11:34.672Z,66.25
2022-09-03T14:12:34.886Z,64.26
2022-09-03T14:13:35.233Z,64.29
2022-09-03T14:14:35.567Z,64.65
2022-09-03T14:15:35.880Z,66.94
2022-09-03T14:16:36.460Z,68.03
2022-09-03T14:17:36.526Z,68.07
2022-09-03T14:18:36.835Z,69.46
2022-09-03T14:19:37.180Z,68.79
2022-09-03T14:20:37.400Z,68.90
2022-09-03T14:21:37.703Z,68.79
2022-09-03T14:22:38.005Z,68.33
2022-09-03T14:23:38.319Z,68.70
2022-09-03T14:24:38.628Z,67.33
2022-09-03T14:25:38.992Z,66.27
2022-09-03T14:26:40.128Z,65.61
2022-09-03T14:27:39.453Z,63.86
2022-09-03T14:28:39.749Z,61.65
2022-09-03T14:29:40.080Z,62.47
2022-09-03T14:30:40.384Z,62.53
2022-09-03T14:31:40.769Z,62.37
2022-09-03T14:32:42.539Z,64.42
2022-09-03T14:33:41.214Z,62.87
2022-09-03T14:34:41.529Z,59.93
2022-09-03T14:35:41.841Z,61.59
2022-09-03T14:36:42.160Z,60.27
2022-09-03T14:37:42.468Z,59.48
2022-09-03T14:38:42.812Z,59.84
2022-09-03T14:39:43.177Z,58.43
2022-09-03T14:40:43.405Z,56.79
2022-09-03T14:41:43.774Z,55.58
2022-09-03T14:42:43.973Z,56.74
2022-09-03T14:43:44.312Z,55.62
2022-09-03T14:44:44.643Z,56.88
2022-09-03T14:45:45.017Z,53.79
2022-09-03T14:46:45.264Z,52.19
2022-09-03T14:47:45.464Z,51.10
2022-09-03T14:48:45.778Z,50.78
2022-09-03T14:49:46.117Z,51.54
2022-09-03T14:50:46.320Z,49.57
2022-09-03T14:51:46.625Z,51.97
2022-09-03T14:52:47.811Z,51.64
2022-09-03T14:53:47.236Z,50.54
2022-09-03T14:54:47.454Z,48.94
2022-09-03T14:55:47.773Z,48.64
2022-09-03T14:56:48.082Z,50.85
2022-09-03T14:57:48.404Z,50.07
2022-09-03T14:58:48.764Z,48.57
2022-09-03T14:59:48.971Z,48.99
2022-09-03T15:00:49.353Z,47.98
2022-09-03T15:01:49.620Z,48.25
2022-09-03T15:02:51.261Z,47.56